Chattanooga, TN

4:09 PM EDT on July 30, 2016 (GMT -0400)
Coolidge Park | | Change Station

Elev 673 ft 35.06 °N, 85.31 °W | Updated 14 seconds ago

Mostly Cloudy
Mostly Cloudy
90.0 °F
Feels Like 90 °F
N
2.7
Wind Variable Wind from WSW
Gusts 4.9 mph

Today
High -- | Low -- °F
--% Chance of Precip.
Yesterday
High -- | Low -- °F
Precip. -- in
Pressure 29.96 in
Visibility 10.0 miles
Clouds Scattered Clouds 5000 ft
Scattered Clouds 10000 ft
Mostly Cloudy 15000 ft
Mostly Cloudy 25000 ft
Heat Index 90 °F
Dew Point 62 °F
Humidity 39%
Rainfall 0.00 in
Snow Depth Not available.
6:49 AM 8:45 PM
Waning Crescent, 11% visible
METAR KCHA 301953Z VRB05KT 10SM SCT050 SCT100 BKN150 BKN250 33/18 A2998 RMK AO2 SLP143 T03330183
Pressure 29.96 in
Visibility 10.0 miles
Clouds Scattered Clouds 5000 ft
Scattered Clouds 10000 ft
Mostly Cloudy 15000 ft
Mostly Cloudy 25000 ft
Heat Index 90 °F
Dew Point 62 °F
Humidity 39%
Rainfall 0.00 in
Snow Depth Not available.
6:49 AM 8:45 PM
Waning Crescent, 11% visible
METAR KCHA 301953Z VRB05KT 10SM SCT050 SCT100 BKN150 BKN250 33/18 A2998 RMK AO2 SLP143 T03330183

10-Day Weather Forecast

Almanac

Astronomy

Jul. 30, 2016 Rise Set
Actual Time
Civil Twilight
Nautical Twilight
Astronomical Twilight
Moon
Length of Visible Light
Length of Day
Tomorrow will be .
, % of the Moon is Illuminated

Today's Extremes

State Highs State Lows

Community

WunderPhotos

Upload Photos

1,928,630 photos uploaded!

WunderBlog® & News

Nearby

Air Quality

  Air Quality AQ Index Pollutant
Not available.

Snow Depth

Station Depth Elevation

Earthquake Activity

City Distance Mag. Time & Date
Minimum magnitude displayed is 2.5.

Coastal Water Temperatures

Place Temperature

Stations

Nearby Weather Stations

Station Location Temp. Windchill Dew Point Humidity Wind Precip. Elev Updated Type
                   

Watches & Warnings

There are currently no watches in effect.